Time;durP1;ratioP1;P1;durP2;ratioP2;P2;SDS_P1;SDS_P2;PMS_P1;PMS_P2;Temp;Humidity;BMP_temperature;BMP_pressure;BME280_temperature;BME280_humidity;BME280_pressure;Samples;Min_cycle;Max_cycle;Signal;HPM_P1;HPM_P2
2021/06/19 18:17:38;;;;;;;4.72;3.20;;;24.60;95.40;;;;;;5155192;27;20847;-88
2021/06/19 18:20:05;;;;;;;6.18;3.30;;;24.50;95.80;;;;;;5134762;27;20031;-89
2021/06/19 18:22:31;;;;;;;7.93;3.13;;;24.50;96.30;;;;;;5134891;27;20030;-92
2021/06/19 18:24:56;;;;;;;5.82;3.20;;;24.50;96.60;;;;;;5134780;27;20042;-87
2021/06/19 18:27:22;;;;;;;4.97;2.90;;;24.50;96.90;;;;;;5125117;28;20059;-89
2021/06/19 18:29:49;;;;;;;5.53;3.00;;;24.50;97.00;;;;;;5113490;28;20123;-89
2021/06/19 18:32:15;;;;;;;6.97;2.67;;;24.60;97.10;;;;;;5113701;28;20068;-84
2021/06/19 18:34:41;;;;;;;6.38;3.10;;;24.60;96.80;;;;;;5113008;28;20035;-81
2021/06/19 18:37:10;;;;;;;7.40;2.75;;;24.60;96.60;;;;;;5131147;28;20020;-82
2021/06/19 18:39:37;;;;;;;4.80;3.05;;;24.70;96.60;;;;;;5114345;28;20065;-82
2021/06/19 18:42:05;;;;;;;7.93;3.15;;;24.70;96.30;;;;;;5113017;28;20119;-83
2021/06/19 18:44:30;;;;;;;8.27;2.90;;;24.80;96.10;;;;;;5113039;28;20027;-81
2021/06/19 18:46:56;;;;;;;18.30;3.63;;;24.80;95.90;;;;;;5114630;28;20106;-90
2021/06/19 18:49:22;;;;;;;11.70;2.42;;;24.80;95.90;;;;;;5131466;28;20537;-84
2021/06/19 18:51:48;;;;;;;7.55;2.85;;;24.80;95.90;;;;;;5122585;27;20469;-83
2021/06/19 18:54:16;;;;;;;3.83;2.58;;;24.80;95.90;;;;;;5133067;27;20035;-85
2021/06/19 18:56:42;;;;;;;3.78;2.83;;;24.80;96.00;;;;;;5133153;27;20027;-84
2021/06/19 18:59:08;;;;;;;5.68;2.78;;;24.80;95.90;;;;;;5133022;27;20015;-84
2021/06/19 19:01:33;;;;;;;4.35;2.72;;;24.80;96.00;;;;;;5133260;27;20387;-90
2021/06/19 19:03:59;;;;;;;10.85;3.00;;;24.80;96.10;;;;;;5134151;27;20486;-85
2021/06/19 19:06:25;;;;;;;6.00;2.92;;;24.80;96.20;;;;;;5132906;27;20533;-84
2021/06/19 19:08:51;;;;;;;7.50;3.55;;;24.70;96.30;;;;;;5133161;27;20034;-85
2021/06/19 19:11:17;;;;;;;9.18;6.30;;;24.70;96.30;;;;;;5132689;27;20023;-85
2021/06/19 19:13:47;;;;;;;10.98;5.47;;;24.70;96.30;;;;;;5132707;27;20495;-88
2021/06/19 19:16:13;;;;;;;12.40;4.35;;;24.60;96.40;;;;;;5128511;27;20105;-86
2021/06/19 19:18:39;;;;;;;11.07;5.95;;;24.70;96.50;;;;;;5128076;28;20032;-85
2021/06/19 19:21:06;;;;;;;12.95;5.20;;;24.60;96.60;;;;;;5126560;28;20070;-85
2021/06/19 19:23:32;;;;;;;10.05;4.00;;;24.60;96.80;;;;;;5115844;28;20469;-84
2021/06/19 19:25:58;;;;;;;12.80;3.45;;;24.60;97.00;;;;;;5127471;28;20035;-86
2021/06/19 19:28:24;;;;;;;6.30;3.53;;;24.60;97.10;;;;;;5118630;28;20106;-85
2021/06/19 19:30:49;;;;;;;9.82;3.90;;;24.60;97.20;;;;;;5108353;28;20034;-88
2021/06/19 19:33:15;;;;;;;22.58;17.02;;;24.60;97.40;;;;;;5117116;28;20481;-89
2021/06/19 19:35:41;;;;;;;10.52;7.88;;;24.60;97.30;;;;;;5116112;28;20404;-88
2021/06/19 19:38:07;;;;;;;12.05;4.65;;;24.60;97.60;;;;;;5116457;28;20035;-89
2021/06/19 19:40:33;;;;;;;4.72;3.22;;;24.60;97.40;;;;;;5115936;28;20106;-92
2021/06/19 19:42:59;;;;;;;6.43;3.10;;;24.60;97.40;;;;;;5115921;28;20020;-90
2021/06/19 19:45:26;;;;;;;5.90;2.65;;;24.60;97.50;;;;;;5115802;28;20043;-88
2021/06/19 19:47:53;;;;;;;9.18;2.60;;;24.60;97.50;;;;;;5116048;28;20027;-90
2021/06/19 19:50:20;;;;;;;4.00;2.50;;;24.60;97.50;;;;;;5116176;28;20130;-91
2021/06/19 19:52:46;;;;;;;7.50;3.50;;;24.60;97.50;;;;;;5116413;28;20027;-91
2021/06/19 19:55:15;;;;;;;15.10;11.23;;;24.60;97.50;;;;;;5116023;28;20106;-91
2021/06/19 19:57:42;;;;;;;7.45;3.22;;;24.60;97.40;;;;;;5114217;28;20028;-88
2021/06/19 20:00:12;;;;;;;4.95;2.63;;;24.60;97.40;;;;;;5109628;28;20031;-92
2021/06/19 20:02:38;;;;;;;8.10;2.80;;;24.60;97.30;;;;;;5098731;28;20023;-88
2021/06/19 20:05:08;;;;;;;11.65;5.55;;;24.50;97.00;;;;;;5115605;28;20427;-91
2021/06/19 20:07:36;;;;;;;6.20;3.60;;;24.50;97.00;;;;;;5115809;28;20035;-91
2021/06/19 20:10:04;;;;;;;7.82;3.72;;;24.60;96.90;;;;;;5115049;28;20110;-90
2021/06/19 20:12:34;;;;;;;11.82;3.17;;;24.50;96.90;;;;;;5115072;28;20054;-95
2021/06/19 20:15:00;;;;;;;11.48;2.85;;;24.50;96.80;;;;;;5102105;28;20059;-86
2021/06/19 20:17:26;;;;;;;2.65;2.30;;;24.60;96.90;;;;;;5098542;28;20068;-88
2021/06/19 20:19:52;;;;;;;7.68;2.83;;;24.60;97.20;;;;;;5097264;28;20083;-88
2021/06/19 20:22:19;;;;;;;7.32;2.40;;;24.50;97.00;;;;;;5096006;28;20466;-89
2021/06/19 20:24:46;;;;;;;6.50;2.70;;;24.50;97.00;;;;;;5105011;28;20020;-94
2021/06/19 20:27:14;;;;;;;6.10;2.67;;;24.50;97.00;;;;;;5099371;28;20461;-91
2021/06/19 20:29:40;;;;;;;3.45;2.90;;;24.50;97.00;;;;;;5106235;28;20537;-90
2021/06/19 20:32:08;;;;;;;4.07;2.50;;;24.50;97.10;;;;;;5107336;28;20166;-88
2021/06/19 20:34:34;;;;;;;6.40;4.38;;;24.50;97.10;;;;;;5099338;28;20028;-90
2021/06/19 20:37:00;;;;;;;4.63;3.95;;;24.40;97.10;;;;;;5094618;28;20031;-88
2021/06/19 20:39:26;;;;;;;4.15;3.30;;;24.40;97.20;;;;;;5093135;28;20485;-86
2021/06/19 20:41:53;;;;;;;3.15;2.75;;;24.40;97.20;;;;;;5095486;28;20024;-89
2021/06/19 20:44:20;;;;;;;5.25;2.72;;;24.40;97.10;;;;;;5093889;28;20020;-86
2021/06/19 20:46:45;;;;;;;10.68;3.15;;;24.40;97.20;;;;;;5093789;28;20453;-87
2021/06/19 20:49:12;;;;;;;5.03;3.20;;;24.40;97.20;;;;;;5093651;28;20059;-86
2021/06/19 20:51:38;;;;;;;17.13;2.53;;;24.30;97.20;;;;;;5094020;28;20020;-87
2021/06/19 20:54:04;;;;;;;4.40;2.13;;;24.40;97.10;;;;;;5113038;28;20073;-85
2021/06/19 20:56:31;;;;;;;3.78;2.30;;;24.40;97.10;;;;;;5114582;28;20028;-87
2021/06/19 20:58:57;;;;;;;4.10;2.17;;;24.30;97.20;;;;;;5114166;28;20026;-87
2021/06/19 21:01:23;;;;;;;4.70;2.60;;;24.30;97.20;;;;;;5114073;28;20016;-85
2021/06/19 21:03:48;;;;;;;4.80;2.72;;;24.30;97.10;;;;;;5114200;28;20027;-85
2021/06/19 21:06:15;;;;;;;3.00;2.70;;;24.30;97.30;;;;;;5113928;28;20026;-86
2021/06/19 21:08:41;;;;;;;15.95;7.63;;;24.30;97.40;;;;;;5110602;28;20027;-85
2021/06/19 21:11:11;;;;;;;5.05;3.10;;;24.30;97.30;;;;;;5113924;28;20026;-85
2021/06/19 21:13:37;;;;;;;4.95;2.67;;;24.30;97.20;;;;;;5108778;28;20097;-84
2021/06/19 21:16:03;;;;;;;4.43;2.70;;;24.20;97.00;;;;;;5122494;27;20089;-86
2021/06/19 21:18:29;;;;;;;4.00;2.60;;;24.20;96.90;;;;;;5118130;27;20060;-85
2021/06/19 21:20:55;;;;;;;8.80;2.88;;;24.20;96.90;;;;;;5116809;27;20524;-85
2021/06/19 21:23:20;;;;;;;12.65;3.50;;;24.30;96.90;;;;;;5128098;27;20026;-84
2021/06/19 21:25:46;;;;;;;5.38;2.40;;;24.20;96.90;;;;;;5096684;28;20024;-85
2021/06/19 21:28:13;;;;;;;3.92;2.35;;;24.20;96.80;;;;;;5106175;27;20031;-86
2021/06/19 21:30:39;;;;;;;5.00;2.50;;;24.30;96.80;;;;;;5117186;27;20034;-85
2021/06/19 21:33:04;;;;;;;7.22;2.67;;;24.20;96.80;;;;;;5117028;27;20419;-85
2021/06/19 21:35:30;;;;;;;4.50;2.53;;;24.20;96.80;;;;;;5103586;28;20110;-86
2021/06/19 21:37:56;;;;;;;4.15;2.63;;;24.30;96.80;;;;;;5097110;28;20083;-85
2021/06/19 21:40:22;;;;;;;9.35;2.85;;;24.20;96.80;;;;;;5111168;27;20031;-86
2021/06/19 21:42:48;;;;;;;2.88;2.15;;;24.20;96.80;;;;;;5116900;27;20468;-86
2021/06/19 21:45:14;;;;;;;3.25;2.10;;;24.20;96.80;;;;;;5116586;27;20046;-87
2021/06/19 21:47:40;;;;;;;5.55;2.42;;;24.20;96.70;;;;;;5116800;27;20027;-86
2021/06/19 21:50:09;;;;;;;3.97;2.20;;;24.20;96.60;;;;;;5134886;27;20027;-85
2021/06/19 21:52:35;;;;;;;5.22;2.25;;;24.20;96.60;;;;;;5117119;27;20058;-85
2021/06/19 21:55:00;;;;;;;4.18;2.60;;;24.20;96.50;;;;;;5108124;28;20489;-85
2021/06/19 21:57:26;;;;;;;3.50;2.42;;;24.20;96.50;;;;;;5114643;28;20103;-85
2021/06/19 21:59:58;;;;;;;4.90;2.10;;;24.20;96.50;;;;;;5107186;27;20034;-85
2021/06/19 22:02:24;;;;;;;3.28;2.50;;;24.20;96.50;;;;;;5116455;27;20138;-85
2021/06/19 22:04:50;;;;;;;4.03;2.40;;;24.10;96.30;;;;;;5115915;28;20055;-84
2021/06/19 22:07:16;;;;;;;3.50;2.20;;;24.10;96.40;;;;;;5116407;28;20026;-84
2021/06/19 22:09:43;;;;;;;5.05;2.58;;;24.10;96.20;;;;;;5123040;27;20019;-85
2021/06/19 22:12:11;;;;;;;2.80;2.38;;;24.10;96.30;;;;;;5118711;27;20065;-84
2021/06/19 22:14:38;;;;;;;6.03;2.70;;;24.10;96.30;;;;;;5096279;28;20084;-84
2021/06/19 22:17:04;;;;;;;5.20;2.58;;;24.10;96.30;;;;;;5095743;28;20512;-85
2021/06/19 22:19:31;;;;;;;4.82;2.35;;;24.00;96.20;;;;;;5096347;28;20024;-85
2021/06/19 22:21:58;;;;;;;4.70;2.33;;;24.00;96.30;;;;;;5096201;28;20027;-85
2021/06/19 22:24:23;;;;;;;4.28;2.35;;;24.00;96.30;;;;;;5114226;28;20441;-84
2021/06/19 22:26:49;;;;;;;7.60;2.40;;;24.00;96.20;;;;;;5106724;28;20096;-84
2021/06/19 22:29:15;;;;;;;4.10;2.10;;;24.00;96.20;;;;;;5132349;28;20370;-85
2021/06/19 22:31:41;;;;;;;6.80;2.67;;;24.00;96.30;;;;;;5116230;28;20076;-85
2021/06/19 22:34:07;;;;;;;2.58;1.80;;;24.00;96.30;;;;;;5095879;28;20026;-84
2021/06/19 22:36:33;;;;;;;2.63;2.05;;;24.00;96.30;;;;;;5113927;28;20023;-85
2021/06/19 22:38:59;;;;;;;3.65;2.30;;;23.90;96.30;;;;;;5109711;28;20023;-85
2021/06/19 22:41:25;;;;;;;3.15;2.00;;;23.90;96.30;;;;;;5116541;28;20027;-85
2021/06/19 22:43:52;;;;;;;3.55;2.28;;;23.90;96.30;;;;;;5095830;28;20019;-85
2021/06/19 22:46:18;;;;;;;4.68;2.00;;;23.90;96.30;;;;;;5111544;28;20032;-86
2021/06/19 22:48:44;;;;;;;4.15;2.35;;;23.80;96.50;;;;;;5095699;28;20080;-86
2021/06/19 22:51:10;;;;;;;3.72;2.15;;;23.80;96.60;;;;;;5095679;28;20058;-86
2021/06/19 22:53:35;;;;;;;2.63;2.05;;;23.80;96.70;;;;;;5095727;28;20381;-86
2021/06/19 22:56:01;;;;;;;2.55;2.20;;;23.80;97.00;;;;;;5114080;28;20031;-85
2021/06/19 22:58:27;;;;;;;4.95;2.67;;;23.80;97.10;;;;;;5115902;28;20034;-85
2021/06/19 23:00:53;;;;;;;3.20;2.88;;;23.60;99.50;;;;;;5104872;28;20024;-85
2021/06/19 23:03:19;;;;;;;4.85;3.20;;;23.30;99.90;;;;;;5097931;28;20019;-86
2021/06/19 23:05:45;;;;;;;4.05;2.95;;;23.10;99.90;;;;;;5114511;27;20027;-85
2021/06/19 23:08:11;;;;;;;4.78;2.92;;;22.90;99.90;;;;;;5119851;27;20098;-84
2021/06/19 23:10:37;;;;;;;4.82;2.70;;;22.80;99.90;;;;;;5118669;27;20051;-85
2021/06/19 23:13:02;;;;;;;4.72;3.10;;;22.70;99.90;;;;;;5119951;27;20045;-85
2021/06/19 23:15:28;;;;;;;7.05;3.00;;;22.60;99.90;;;;;;5119228;27;20076;-85
2021/06/19 23:17:54;;;;;;;4.47;2.80;;;22.60;99.90;;;;;;5119451;27;20019;-84
2021/06/19 23:20:22;;;;;;;3.45;3.08;;;22.50;99.90;;;;;;5108331;28;20028;-84
2021/06/19 23:22:48;;;;;;;6.80;3.05;;;22.50;99.90;;;;;;5098934;28;20027;-85
2021/06/19 23:25:14;;;;;;;5.70;3.00;;;22.50;99.90;;;;;;5109714;27;20031;-85
2021/06/19 23:27:40;;;;;;;3.85;3.30;;;22.40;99.90;;;;;;5103385;28;20032;-82
2021/06/19 23:30:09;;;;;;;6.80;3.00;;;22.40;99.90;;;;;;5098936;28;20019;-84
2021/06/19 23:32:35;;;;;;;4.15;2.90;;;22.40;99.90;;;;;;5098600;28;20111;-84
2021/06/19 23:35:01;;;;;;;5.35;2.85;;;22.30;99.90;;;;;;5098646;28;20458;-83
2021/06/19 23:37:26;;;;;;;3.65;2.97;;;22.30;99.90;;;;;;5131280;27;20034;-83
2021/06/19 23:39:52;;;;;;;3.80;2.83;;;22.20;99.90;;;;;;5136033;27;20054;-83
2021/06/19 23:42:18;;;;;;;3.30;2.88;;;22.20;99.90;;;;;;5100978;28;20480;-83
2021/06/19 23:44:44;;;;;;;5.82;2.90;;;22.20;99.90;;;;;;5116704;28;20027;-83
2021/06/19 23:47:09;;;;;;;4.68;3.10;;;22.20;99.90;;;;;;5098530;28;20110;-82
2021/06/19 23:49:35;;;;;;;3.10;2.80;;;22.10;99.90;;;;;;5100477;27;20023;-83
2021/06/19 23:52:02;;;;;;;4.75;3.00;;;22.10;99.90;;;;;;5131558;27;20024;-82
2021/06/19 23:54:28;;;;;;;3.83;2.60;;;22.20;99.90;;;;;;5120210;27;20132;-83
2021/06/19 23:56:54;;;;;;;3.22;2.75;;;22.20;99.90;;;;;;5118476;27;20114;-82
2021/06/19 23:59:20;;;;;;;5.20;2.90;;;22.20;99.90;;;;;;5130742;27;20024;-82
